Time;durP1;ratioP1;P1;durP2;ratioP2;P2;SDS_P1;SDS_P2;PMS_P1;PMS_P2;Temp;Humidity;BMP_temperature;BMP_pressure;BME280_temperature;BME280_humidity;BME280_pressure;Samples;Min_cycle;Max_cycle;Signal;HPM_P1;HPM_P2
2021/05/29 00:02:06;;;;;;;4.32;3.92;;;23.30;43.90;;;;;;5123728;28;20027;-41
2021/05/29 00:04:32;;;;;;;4.35;3.70;;;23.30;44.30;;;;;;5123378;28;20036;-42
2021/05/29 00:06:58;;;;;;;4.15;3.85;;;23.30;44.10;;;;;;5123521;28;20055;-41
2021/05/29 00:09:25;;;;;;;4.40;4.00;;;23.30;44.40;;;;;;5123416;28;20090;-41
2021/05/29 00:11:51;;;;;;;3.60;3.30;;;23.30;44.20;;;;;;5123628;28;20020;-42
2021/05/29 00:14:17;;;;;;;3.90;3.60;;;23.20;43.70;;;;;;5123019;28;20043;-42
2021/05/29 00:16:43;;;;;;;3.75;3.45;;;23.20;44.00;;;;;;5122243;28;20133;-43
2021/05/29 00:19:09;;;;;;;3.33;3.10;;;23.20;44.10;;;;;;5123381;28;20039;-41
2021/05/29 00:21:35;;;;;;;3.20;3.00;;;23.20;43.90;;;;;;5123148;28;20019;-44
2021/05/29 00:24:02;;;;;;;3.30;3.00;;;23.20;43.90;;;;;;5123105;28;20028;-42
2021/05/29 00:26:28;;;;;;;3.63;3.33;;;23.10;44.60;;;;;;5123203;28;20030;-43
2021/05/29 00:28:54;;;;;;;3.45;3.15;;;23.10;43.70;;;;;;5123385;28;20031;-43
2021/05/29 00:31:20;;;;;;;3.65;3.35;;;23.10;43.50;;;;;;5123362;28;20057;-43
2021/05/29 00:33:46;;;;;;;3.20;2.90;;;23.10;43.60;;;;;;5123034;28;20036;-42
2021/05/29 00:36:13;;;;;;;3.13;2.92;;;23.10;43.10;;;;;;5123267;28;20028;-44
2021/05/29 00:38:39;;;;;;;3.67;3.30;;;23.00;43.10;;;;;;5123157;28;20027;-41
2021/05/29 00:41:08;;;;;;;3.65;3.35;;;23.00;42.80;;;;;;5123281;28;20069;-41
2021/05/29 00:43:35;;;;;;;3.30;3.00;;;23.00;43.20;;;;;;5125986;28;20028;-41
2021/05/29 00:46:02;;;;;;;3.42;3.13;;;22.90;42.80;;;;;;5127454;28;20607;-42
2021/05/29 00:48:28;;;;;;;3.40;3.10;;;22.90;43.30;;;;;;5127332;28;20024;-42
2021/05/29 00:51:00;;;;;;;3.38;3.08;;;22.90;42.80;;;;;;5126718;28;20031;-42
2021/05/29 00:53:28;;;;;;;3.45;3.15;;;22.90;42.60;;;;;;5124045;27;20496;-42
2021/05/29 00:55:54;;;;;;;2.97;2.70;;;22.80;43.70;;;;;;5106202;28;20054;-42
2021/05/29 00:58:25;;;;;;;3.30;3.00;;;22.80;46.10;;;;;;5119100;28;20112;-42
2021/05/29 01:00:51;;;;;;;3.47;3.17;;;22.80;44.10;;;;;;5125553;28;20024;-42
2021/05/29 01:03:18;;;;;;;4.00;3.60;;;22.80;44.80;;;;;;5126762;28;20039;-43
2021/05/29 01:05:44;;;;;;;3.38;3.08;;;22.80;45.00;;;;;;5126611;28;20027;-41
2021/05/29 01:08:10;;;;;;;3.50;3.20;;;22.80;45.00;;;;;;5126730;28;20075;-42
2021/05/29 01:10:36;;;;;;;3.50;3.20;;;22.80;45.20;;;;;;5125262;28;20566;-48
2021/05/29 01:13:04;;;;;;;4.05;3.60;;;22.80;45.90;;;;;;5126383;28;20023;-46
2021/05/29 01:15:39;;;;;;;3.60;3.30;;;22.80;45.70;;;;;;5126344;28;20042;-47
2021/05/29 01:18:06;;;;;;;3.70;3.40;;;22.80;45.60;;;;;;5126675;28;20043;-47
2021/05/29 01:20:32;;;;;;;4.00;3.70;;;22.80;45.80;;;;;;5126491;28;20042;-48
2021/05/29 01:22:59;;;;;;;3.33;3.03;;;22.70;44.60;;;;;;5126444;28;20027;-46
2021/05/29 01:25:31;;;;;;;3.70;3.40;;;22.70;45.50;;;;;;5125990;27;20042;-45
2021/05/29 01:28:05;;;;;;;3.60;3.30;;;22.70;44.50;;;;;;5126381;28;20027;-44
2021/05/29 01:30:35;;;;;;;3.08;2.78;;;22.70;44.60;;;;;;5126325;28;20510;-43
2021/05/29 01:33:01;;;;;;;3.28;2.97;;;22.60;44.00;;;;;;5126230;28;20023;-43
2021/05/29 01:35:28;;;;;;;3.78;3.20;;;22.60;43.90;;;;;;5141592;27;20629;-44
2021/05/29 01:37:54;;;;;;;3.53;3.10;;;22.60;44.20;;;;;;5126060;28;20480;-43
2021/05/29 01:40:20;;;;;;;3.28;2.97;;;22.60;44.60;;;;;;5124892;28;20035;-44
2021/05/29 01:42:46;;;;;;;3.08;2.78;;;22.50;44.30;;;;;;5126235;28;20047;-44
2021/05/29 01:45:13;;;;;;;3.08;2.63;;;22.50;44.80;;;;;;5125845;28;20039;-43
2021/05/29 01:47:43;;;;;;;3.05;2.85;;;22.50;44.30;;;;;;5125747;27;20039;-46
2021/05/29 01:50:11;;;;;;;2.95;2.75;;;22.50;44.40;;;;;;5125517;28;20028;-46
2021/05/29 01:52:57;;;;;;;2.97;2.78;;;22.50;44.90;;;;;;5124564;28;20032;-47
2021/05/29 01:55:28;;;;;;;2.70;2.47;;;22.40;44.20;;;;;;5123748;28;20039;-45
2021/05/29 01:57:54;;;;;;;2.95;2.70;;;22.40;44.90;;;;;;5125876;27;20027;-45
2021/05/29 02:00:22;;;;;;;3.13;2.78;;;22.40;46.40;;;;;;5125873;28;20031;-44
2021/05/29 02:02:48;;;;;;;3.33;2.28;;;22.40;48.00;;;;;;5125018;28;20043;-44
2021/05/29 02:05:22;;;;;;;3.55;2.78;;;22.30;48.80;;;;;;5125498;28;20020;-46
2021/05/29 02:07:49;;;;;;;2.70;2.50;;;22.30;49.30;;;;;;5125350;28;20862;-43
2021/05/29 02:10:18;;;;;;;2.85;2.65;;;22.30;50.40;;;;;;5125461;28;20053;-44
2021/05/29 02:12:45;;;;;;;2.83;2.53;;;22.40;51.30;;;;;;5125024;28;20032;-44
2021/05/29 02:15:22;;;;;;;2.70;2.50;;;22.30;51.90;;;;;;5124978;28;20040;-45
2021/05/29 02:17:50;;;;;;;2.40;2.20;;;22.30;52.50;;;;;;5125499;28;20035;-43
2021/05/29 02:20:17;;;;;;;2.35;2.15;;;22.30;53.00;;;;;;5125261;28;20028;-44
2021/05/29 02:22:43;;;;;;;2.45;2.25;;;22.30;53.30;;;;;;5125218;28;20020;-43
2021/05/29 02:25:10;;;;;;;2.63;2.17;;;22.30;53.70;;;;;;5124871;28;20217;-43
2021/05/29 02:27:36;;;;;;;2.20;2.00;;;22.30;53.70;;;;;;5140908;27;20081;-43
2021/05/29 02:30:05;;;;;;;2.30;2.10;;;22.30;54.00;;;;;;5124704;28;20027;-44
2021/05/29 02:32:31;;;;;;;2.42;2.22;;;22.30;54.20;;;;;;5125029;28;20039;-47
2021/05/29 02:34:58;;;;;;;1.95;1.85;;;22.30;54.10;;;;;;5124875;28;20035;-46
2021/05/29 02:37:24;;;;;;;2.03;1.80;;;22.30;54.30;;;;;;5124656;28;20024;-42
2021/05/29 02:39:50;;;;;;;2.20;1.70;;;22.40;54.20;;;;;;5124671;28;20028;-43
2021/05/29 02:42:16;;;;;;;2.30;2.10;;;22.40;54.20;;;;;;5124546;28;20601;-43
2021/05/29 02:44:42;;;;;;;2.72;2.20;;;22.40;54.30;;;;;;5124738;28;20038;-44
2021/05/29 02:47:09;;;;;;;1.67;1.55;;;22.40;54.30;;;;;;5124329;28;20030;-42
2021/05/29 02:49:35;;;;;;;4.45;2.03;;;22.40;54.80;;;;;;5124796;28;20103;-43
2021/05/29 02:52:01;;;;;;;3.67;2.00;;;22.50;55.30;;;;;;5124392;28;20019;-43
2021/05/29 02:54:27;;;;;;;3.15;1.90;;;22.40;55.40;;;;;;5123826;28;20031;-43
2021/05/29 02:56:53;;;;;;;1.98;1.73;;;22.40;55.60;;;;;;5114944;27;20024;-44
2021/05/29 02:59:19;;;;;;;2.58;1.92;;;22.50;55.80;;;;;;5125628;27;20028;-45
2021/05/29 03:01:46;;;;;;;3.85;1.75;;;22.40;55.30;;;;;;5123960;28;20024;-43
2021/05/29 03:04:12;;;;;;;4.32;1.73;;;22.50;55.00;;;;;;5124103;28;20055;-42
2021/05/29 03:06:38;;;;;;;2.70;1.63;;;22.50;54.70;;;;;;5123865;28;20035;-43
2021/05/29 03:09:04;;;;;;;1.85;1.75;;;22.50;54.50;;;;;;5124238;28;20050;-42
2021/05/29 03:11:33;;;;;;;2.15;1.90;;;22.50;54.30;;;;;;5123848;28;20083;-43
2021/05/29 03:13:59;;;;;;;3.40;1.90;;;22.50;54.20;;;;;;5124171;28;20038;-43
2021/05/29 03:16:26;;;;;;;1.90;1.70;;;22.50;54.10;;;;;;5122891;28;20020;-44
2021/05/29 03:18:53;;;;;;;1.75;1.65;;;22.50;54.00;;;;;;5124011;28;20060;-47
2021/05/29 03:21:19;;;;;;;2.10;1.90;;;22.50;54.00;;;;;;5123828;27;20038;-43
2021/05/29 03:23:45;;;;;;;2.00;1.60;;;22.50;54.30;;;;;;5124156;28;20019;-44
2021/05/29 03:26:11;;;;;;;2.60;1.88;;;22.50;54.40;;;;;;5123739;28;20051;-43
2021/05/29 03:28:37;;;;;;;1.70;1.60;;;22.50;54.40;;;;;;5123811;28;20053;-43
2021/05/29 03:31:03;;;;;;;1.90;1.70;;;22.60;54.60;;;;;;5123330;28;20114;-43
2021/05/29 03:33:30;;;;;;;2.60;1.70;;;22.50;54.50;;;;;;5123815;28;20062;-44
2021/05/29 03:35:56;;;;;;;3.15;1.73;;;22.50;54.50;;;;;;5123710;28;20020;-43
2021/05/29 03:38:22;;;;;;;1.88;1.65;;;22.50;54.40;;;;;;5123697;28;20019;-42
2021/05/29 03:40:49;;;;;;;1.83;1.50;;;22.50;54.40;;;;;;5123274;28;20031;-43
2021/05/29 03:43:15;;;;;;;3.15;1.88;;;22.50;54.40;;;;;;5123842;28;20760;-43
2021/05/29 03:45:41;;;;;;;2.50;1.55;;;22.50;54.40;;;;;;5123602;28;20088;-42
2021/05/29 03:48:08;;;;;;;2.10;1.70;;;22.50;54.20;;;;;;5123586;28;20024;-43
2021/05/29 03:50:38;;;;;;;1.60;1.50;;;22.50;54.10;;;;;;5122632;28;20043;-43
2021/05/29 03:53:07;;;;;;;1.55;1.40;;;22.50;54.00;;;;;;5121945;27;20047;-43
2021/05/29 03:55:34;;;;;;;2.42;1.80;;;22.50;54.00;;;;;;5122673;28;20412;-43
2021/05/29 03:58:01;;;;;;;2.03;1.60;;;22.50;54.10;;;;;;5123373;28;20039;-42
2021/05/29 04:00:27;;;;;;;1.50;1.40;;;22.50;54.10;;;;;;5123249;28;20020;-42
2021/05/29 04:02:53;;;;;;;1.43;1.30;;;22.50;54.10;;;;;;5123073;28;20035;-42
2021/05/29 04:05:20;;;;;;;1.70;1.60;;;22.50;54.20;;;;;;5123246;28;20027;-44
2021/05/29 04:07:46;;;;;;;1.47;1.37;;;22.50;54.10;;;;;;5123474;28;20547;-43
2021/05/29 04:10:32;;;;;;;1.88;1.60;;;22.50;54.10;;;;;;5122107;28;20020;-43
2021/05/29 04:12:58;;;;;;;1.67;1.40;;;22.50;54.20;;;;;;5122963;28;20028;-43
2021/05/29 04:15:24;;;;;;;1.70;1.50;;;22.50;54.30;;;;;;5123344;28;20038;-43
2021/05/29 04:17:51;;;;;;;1.42;1.20;;;22.50;54.30;;;;;;5122942;28;20032;-44
2021/05/29 04:20:19;;;;;;;1.40;1.30;;;22.50;54.30;;;;;;5123123;28;20023;-43
2021/05/29 04:22:45;;;;;;;2.22;1.63;;;22.50;54.30;;;;;;5122810;28;20533;-43
2021/05/29 04:25:14;;;;;;;1.42;1.33;;;22.50;54.30;;;;;;5123190;28;20023;-42
2021/05/29 04:27:40;;;;;;;1.55;1.40;;;22.50;54.30;;;;;;5122992;28;20566;-44
2021/05/29 04:30:08;;;;;;;2.15;1.50;;;22.50;54.40;;;;;;5123122;28;20023;-43
2021/05/29 04:32:34;;;;;;;1.63;1.40;;;22.50;54.40;;;;;;5122863;28;20031;-43
2021/05/29 04:35:01;;;;;;;1.92;1.67;;;22.50;54.40;;;;;;5122784;28;20067;-43
2021/05/29 04:37:27;;;;;;;1.30;1.20;;;22.50;54.40;;;;;;5104698;28;20357;-42
2021/05/29 04:39:53;;;;;;;1.40;1.30;;;22.50;54.30;;;;;;5123144;28;20100;-42
2021/05/29 04:42:19;;;;;;;2.00;1.30;;;22.50;54.30;;;;;;5122987;28;20023;-42
2021/05/29 04:44:45;;;;;;;1.42;1.33;;;22.50;54.30;;;;;;5123183;28;20035;-43
2021/05/29 04:47:12;;;;;;;1.48;1.35;;;22.50;54.30;;;;;;5123074;28;20041;-43
2021/05/29 04:49:38;;;;;;;2.03;1.35;;;22.50;54.30;;;;;;5122680;28;20178;-43
2021/05/29 04:52:04;;;;;;;2.53;1.40;;;22.50;54.40;;;;;;5122558;28;20059;-42
2021/05/29 04:54:31;;;;;;;1.30;1.20;;;22.50;54.30;;;;;;5120418;28;20579;-43
2021/05/29 04:56:57;;;;;;;1.58;1.45;;;22.50;54.30;;;;;;5122974;28;20020;-43
2021/05/29 04:59:23;;;;;;;1.58;1.40;;;22.50;54.40;;;;;;5122929;28;20050;-43
2021/05/29 05:01:49;;;;;;;1.45;1.35;;;22.50;54.40;;;;;;5122844;28;20019;-44
2021/05/29 05:04:16;;;;;;;1.48;1.35;;;22.50;54.50;;;;;;5122776;28;20059;-42
2021/05/29 05:06:43;;;;;;;2.03;1.33;;;22.50;54.50;;;;;;5122588;28;20027;-44
2021/05/29 05:09:09;;;;;;;1.50;1.20;;;22.50;54.50;;;;;;5122896;28;20553;-43
2021/05/29 05:11:35;;;;;;;1.90;1.40;;;22.50;54.50;;;;;;5122561;28;20023;-42
2021/05/29 05:14:05;;;;;;;1.42;1.25;;;22.50;54.60;;;;;;5122794;28;20023;-43
2021/05/29 05:16:32;;;;;;;1.52;1.17;;;22.50;54.60;;;;;;5122936;28;20028;-42
2021/05/29 05:18:58;;;;;;;1.55;1.38;;;22.50;54.60;;;;;;5122731;28;20023;-43
2021/05/29 05:21:24;;;;;;;2.55;1.40;;;22.50;54.60;;;;;;5122590;28;20103;-44
2021/05/29 05:23:52;;;;;;;1.30;1.20;;;22.50;54.70;;;;;;5122638;28;20038;-44
2021/05/29 05:26:18;;;;;;;1.55;1.17;;;22.50;54.70;;;;;;5122660;28;20081;-43
2021/05/29 05:28:45;;;;;;;1.20;1.10;;;22.50;54.60;;;;;;5122788;28;20024;-43
2021/05/29 05:31:11;;;;;;;1.97;1.43;;;22.50;54.60;;;;;;5126066;28;20031;-42
2021/05/29 05:33:43;;;;;;;1.70;1.30;;;22.50;54.70;;;;;;5126041;28;20041;-42
2021/05/29 05:36:10;;;;;;;2.17;1.38;;;22.40;54.70;;;;;;5124860;28;20028;-42
2021/05/29 05:38:36;;;;;;;2.28;1.20;;;22.50;54.70;;;;;;5126292;28;20087;-42
2021/05/29 05:41:04;;;;;;;1.85;1.20;;;22.40;54.60;;;;;;5126272;28;20024;-42
2021/05/29 05:43:30;;;;;;;1.40;1.30;;;22.40;54.60;;;;;;5126014;28;20027;-44
2021/05/29 05:45:56;;;;;;;1.40;1.30;;;22.40;54.60;;;;;;5125965;28;20031;-43
2021/05/29 05:48:22;;;;;;;1.38;1.25;;;22.40;54.60;;;;;;5126230;28;20664;-43
2021/05/29 05:50:56;;;;;;;1.73;1.15;;;22.40;54.60;;;;;;5125909;28;20031;-42
2021/05/29 05:53:29;;;;;;;1.20;1.10;;;22.40;54.60;;;;;;5124811;28;20045;-43
2021/05/29 05:56:01;;;;;;;1.30;1.20;;;22.40;54.50;;;;;;5125858;28;20096;-43
2021/05/29 05:58:28;;;;;;;1.48;1.20;;;22.40;54.60;;;;;;5125978;28;20027;-43
2021/05/29 06:00:54;;;;;;;;;;;22.40;54.70;;;;;;5126393;28;20091;-43
2021/05/29 06:03:21;;;;;;;1.40;1.30;;;22.40;54.70;;;;;;5125272;28;19989;-42
2021/05/29 06:05:47;;;;;;;2.72;1.35;;;22.40;54.70;;;;;;5125732;27;20020;-43
2021/05/29 06:08:13;;;;;;;2.17;1.13;;;22.40;54.80;;;;;;5125826;28;20038;-43
2021/05/29 06:10:40;;;;;;;1.35;1.25;;;22.40;54.80;;;;;;5125716;27;20616;-42
2021/05/29 06:13:10;;;;;;;2.17;1.20;;;22.40;55.00;;;;;;5125470;28;20484;-43
2021/05/29 06:21:06;;;;;;;1.55;1.10;;;22.40;55.00;;;;;;5105163;28;20554;-43
2021/05/29 06:23:32;;;;;;;1.25;1.15;;;22.40;55.00;;;;;;5108190;28;20038;-42
2021/05/29 06:25:58;;;;;;;1.38;1.27;;;22.40;55.00;;;;;;5125674;28;20068;-42
2021/05/29 06:28:24;;;;;;;1.30;1.20;;;22.40;55.00;;;;;;5125417;28;20024;-43
2021/05/29 06:30:50;;;;;;;1.20;1.10;;;22.40;55.60;;;;;;5125329;28;20051;-43
2021/05/29 06:33:16;;;;;;;1.92;1.10;;;22.40;55.00;;;;;;5125191;28;20115;-42
2021/05/29 06:35:43;;;;;;;1.25;1.10;;;22.40;55.00;;;;;;5125271;28;20416;-43
2021/05/29 06:38:09;;;;;;;1.45;1.35;;;22.40;55.10;;;;;;5125296;28;20045;-43
2021/05/29 06:40:35;;;;;;;1.70;1.15;;;22.40;55.10;;;;;;5124910;28;20024;-43
2021/05/29 06:43:01;;;;;;;1.48;1.10;;;22.40;55.00;;;;;;5125046;28;20019;-43
2021/05/29 06:45:30;;;;;;;1.20;1.10;;;22.40;55.10;;;;;;5125086;28;20024;-44
2021/05/29 06:47:56;;;;;;;1.20;1.00;;;22.40;55.10;;;;;;5125323;28;20112;-43
2021/05/29 06:50:22;;;;;;;1.63;1.10;;;22.40;55.10;;;;;;5124987;28;20543;-43
2021/05/29 06:52:50;;;;;;;1.30;1.20;;;22.40;55.10;;;;;;5125059;27;20023;-43
2021/05/29 07:00:46;;;;;;;1.10;0.88;;;22.40;55.30;;;;;;5124862;28;20038;-43
2021/05/29 07:03:12;;;;;;;1.10;1.00;;;22.40;55.30;;;;;;5124223;28;20043;-42
2021/05/29 07:05:38;;;;;;;1.30;1.20;;;22.30;55.30;;;;;;5124778;28;20031;-44
2021/05/29 07:08:04;;;;;;;1.10;0.95;;;22.40;55.40;;;;;;5124472;28;20031;-43
2021/05/29 07:10:31;;;;;;;1.10;0.95;;;22.40;55.40;;;;;;5124928;28;20524;-45
2021/05/29 07:12:57;;;;;;;1.88;1.20;;;22.30;55.30;;;;;;5124569;28;20493;-43
2021/05/29 07:15:31;;;;;;;1.75;1.08;;;22.30;55.40;;;;;;5124335;28;20059;-44
2021/05/29 07:17:57;;;;;;;1.52;1.05;;;22.30;55.40;;;;;;5124766;28;20023;-43
2021/05/29 07:20:23;;;;;;;1.27;1.10;;;22.30;55.40;;;;;;5124361;28;20035;-44
2021/05/29 07:22:50;;;;;;;1.13;1.02;;;22.30;55.30;;;;;;5124583;27;20065;-43
2021/05/29 07:25:16;;;;;;;1.10;1.05;;;22.30;55.30;;;;;;5124216;28;20028;-43
2021/05/29 07:27:42;;;;;;;1.20;1.10;;;22.30;55.40;;;;;;5124354;28;20361;-43
2021/05/29 07:30:09;;;;;;;1.20;1.10;;;22.30;55.40;;;;;;5124578;28;20026;-45
2021/05/29 07:32:35;;;;;;;1.45;0.90;;;22.30;55.50;;;;;;5124512;28;20103;-45
2021/05/29 07:35:01;;;;;;;1.40;1.27;;;22.30;55.50;;;;;;5123924;28;20066;-44
2021/05/29 07:37:28;;;;;;;1.35;1.25;;;22.30;55.50;;;;;;5124368;28;20028;-43
2021/05/29 07:39:54;;;;;;;1.10;1.00;;;22.30;55.50;;;;;;5123090;28;20049;-43
2021/05/29 07:42:20;;;;;;;1.38;1.05;;;22.30;55.50;;;;;;5124381;28;20027;-43
2021/05/29 07:44:47;;;;;;;1.35;1.13;;;22.30;55.60;;;;;;5123806;28;20036;-44
2021/05/29 07:47:13;;;;;;;1.13;1.02;;;22.30;55.70;;;;;;5105814;28;20427;-43
2021/05/29 07:49:39;;;;;;;2.10;1.13;;;22.40;55.70;;;;;;5123826;28;20024;-43
2021/05/29 07:52:05;;;;;;;1.90;1.10;;;22.30;55.80;;;;;;5122834;28;20113;-43
2021/05/29 07:54:32;;;;;;;1.13;1.00;;;22.30;55.80;;;;;;5124974;27;20027;-43
2021/05/29 07:56:58;;;;;;;1.20;1.05;;;22.30;55.70;;;;;;5124009;28;20399;-42
2021/05/29 07:59:24;;;;;;;1.00;0.90;;;22.30;55.70;;;;;;5124118;28;20042;-43
2021/05/29 08:01:51;;;;;;;1.45;1.20;;;22.30;55.70;;;;;;5123821;28;20065;-44
2021/05/29 08:04:17;;;;;;;1.10;1.00;;;22.30;55.70;;;;;;5123525;28;20043;-43
2021/05/29 08:06:44;;;;;;;0.90;0.90;;;22.30;55.80;;;;;;5123615;28;20023;-43
2021/05/29 08:09:10;;;;;;;1.10;1.00;;;22.30;55.80;;;;;;5124040;28;20039;-43
2021/05/29 08:11:40;;;;;;;1.10;0.95;;;22.30;55.80;;;;;;5123698;28;20088;-43
2021/05/29 08:14:07;;;;;;;1.38;0.93;;;22.30;55.80;;;;;;5123790;28;20036;-43
2021/05/29 08:16:34;;;;;;;2.08;1.00;;;22.30;55.80;;;;;;5123734;28;20020;-45
2021/05/29 08:19:00;;;;;;;1.90;1.00;;;22.40;55.80;;;;;;5123745;28;20028;-44
2021/05/29 08:21:27;;;;;;;2.28;1.15;;;22.30;55.90;;;;;;5123504;28;20024;-43
2021/05/29 08:23:53;;;;;;;1.00;0.90;;;22.30;56.00;;;;;;5122217;28;20016;-43
2021/05/29 08:26:19;;;;;;;1.20;0.93;;;22.30;55.90;;;;;;5123297;28;20043;-44
2021/05/29 08:28:45;;;;;;;1.17;0.82;;;22.30;56.00;;;;;;5123626;28;20090;-43
2021/05/29 08:31:12;;;;;;;1.23;1.05;;;22.30;56.00;;;;;;5122379;28;20053;-42
2021/05/29 08:33:41;;;;;;;1.20;1.10;;;22.30;56.10;;;;;;5123605;28;20053;-43
2021/05/29 08:36:08;;;;;;;1.10;1.00;;;22.30;56.10;;;;;;5121835;28;20035;-43
2021/05/29 08:38:34;;;;;;;1.00;0.87;;;22.30;56.10;;;;;;5122197;28;20059;-44
2021/05/29 08:41:01;;;;;;;0.82;0.80;;;22.30;56.20;;;;;;5123467;28;20325;-42
2021/05/29 08:43:27;;;;;;;1.42;1.00;;;22.30;56.10;;;;;;5123467;28;20069;-44
2021/05/29 08:45:53;;;;;;;1.20;1.08;;;22.30;56.20;;;;;;5123044;28;20110;-42
2021/05/29 08:48:20;;;;;;;1.02;0.90;;;22.30;56.10;;;;;;5123390;28;20028;-43
2021/05/29 08:53:31;;;;;;;1.17;1.08;;;22.30;56.20;;;;;;5123191;28;20034;-43
2021/05/29 08:55:58;;;;;;;0.90;0.90;;;22.30;56.20;;;;;;5138983;28;20614;-42
2021/05/29 08:58:25;;;;;;;1.25;0.80;;;22.30;56.20;;;;;;5122118;28;20036;-44
2021/05/29 09:00:51;;;;;;;1.23;0.90;;;22.30;56.20;;;;;;5121448;28;20110;-43
2021/05/29 09:03:17;;;;;;;1.20;1.00;;;22.30;56.20;;;;;;5123855;28;20040;-43
2021/05/29 09:05:52;;;;;;;0.93;0.82;;;22.30;56.30;;;;;;5126885;28;20068;-44
2021/05/29 09:08:23;;;;;;;1.20;1.00;;;22.30;56.20;;;;;;5127375;27;20035;-43
2021/05/29 09:10:53;;;;;;;1.48;1.00;;;22.30;56.30;;;;;;5127410;28;20043;-43
2021/05/29 09:13:24;;;;;;;1.00;0.88;;;22.30;56.30;;;;;;5126688;28;20028;-43
2021/05/29 09:15:57;;;;;;;0.95;0.85;;;22.30;56.30;;;;;;5126692;28;20035;-44
2021/05/29 09:18:39;;;;;;;1.02;0.80;;;22.30;56.40;;;;;;5126981;28;20036;-43
2021/05/29 09:21:28;;;;;;;1.10;1.00;;;22.30;56.40;;;;;;5106029;28;20028;-44
2021/05/29 09:24:02;;;;;;;1.05;0.95;;;22.30;56.50;;;;;;5112954;28;20027;-43
2021/05/29 09:26:51;;;;;;;0.75;0.75;;;22.30;56.50;;;;;;5126396;28;20027;-43
2021/05/29 09:29:22;;;;;;;1.00;0.85;;;22.30;56.50;;;;;;5126550;28;20100;-44
2021/05/29 09:31:57;;;;;;;0.93;0.90;;;22.30;56.50;;;;;;5126628;28;20028;-43
2021/05/29 09:34:33;;;;;;;1.00;0.90;;;22.30;56.50;;;;;;5126503;28;20027;-43
2021/05/29 09:37:06;;;;;;;1.25;1.15;;;22.30;56.50;;;;;;5126125;28;20024;-43
2021/05/29 09:39:32;;;;;;;1.10;1.00;;;22.30;56.50;;;;;;5126557;28;20035;-43
2021/05/29 09:41:59;;;;;;;1.02;0.90;;;22.30;56.50;;;;;;5125225;28;20032;-43
2021/05/29 09:44:29;;;;;;;1.08;0.90;;;22.30;56.60;;;;;;5125810;28;20088;-43
2021/05/29 09:46:56;;;;;;;0.80;0.80;;;22.30;56.50;;;;;;5126083;28;20032;-43
2021/05/29 09:49:41;;;;;;;1.05;0.90;;;22.30;56.60;;;;;;5126013;28;20032;-44
2021/05/29 09:52:22;;;;;;;0.98;0.88;;;22.30;56.60;;;;;;5125760;28;20023;-44
2021/05/29 09:54:52;;;;;;;1.10;1.00;;;22.30;56.60;;;;;;5123338;28;20039;-43
2021/05/29 09:57:18;;;;;;;0.82;0.80;;;22.30;56.70;;;;;;5125859;28;20280;-43
2021/05/29 10:00:14;;;;;;;0.77;0.77;;;22.30;56.70;;;;;;5126007;28;20042;-46
2021/05/29 10:02:56;;;;;;;1.45;1.20;;;22.30;56.70;;;;;;5116345;28;20043;-45
2021/05/29 10:05:30;;;;;;;1.00;0.90;;;22.30;56.80;;;;;;5124313;28;20024;-43
2021/05/29 10:07:56;;;;;;;1.38;1.08;;;22.40;56.80;;;;;;5125835;28;20103;-43
2021/05/29 10:10:22;;;;;;;1.20;0.90;;;22.30;56.80;;;;;;5125871;28;20053;-43
2021/05/29 10:12:49;;;;;;;1.25;0.80;;;22.30;56.90;;;;;;5125707;28;20023;-46
2021/05/29 10:15:16;;;;;;;1.05;0.75;;;22.30;56.90;;;;;;5124622;28;20119;-43
2021/05/29 10:17:43;;;;;;;;;;;22.30;56.90;;;;;;5126140;28;20019;-45
2021/05/29 10:20:09;;;;;;;1.10;1.00;;;22.30;56.90;;;;;;5125426;28;20276;-44
2021/05/29 10:22:36;;;;;;;1.03;0.93;;;22.30;56.90;;;;;;5124226;28;20024;-43
2021/05/29 10:25:15;;;;;;;2.23;0.90;;;22.30;56.90;;;;;;5123701;28;20020;-43
2021/05/29 10:27:46;;;;;;;0.95;0.85;;;22.30;57.00;;;;;;5139587;27;20040;-43
2021/05/29 10:30:13;;;;;;;0.88;0.82;;;22.30;57.00;;;;;;5125526;28;20020;-43
2021/05/29 10:32:39;;;;;;;1.20;0.70;;;22.30;57.00;;;;;;5124342;28;20108;-43
2021/05/29 10:35:08;;;;;;;0.80;0.73;;;22.30;57.00;;;;;;5124981;28;20039;-43
2021/05/29 10:37:41;;;;;;;2.25;1.10;;;22.30;57.00;;;;;;5125171;28;20083;-43
2021/05/29 10:40:14;;;;;;;1.98;0.70;;;22.30;57.00;;;;;;5123827;28;20031;-43
2021/05/29 10:42:40;;;;;;;0.95;0.88;;;22.30;57.10;;;;;;5124847;28;20047;-43
2021/05/29 10:45:21;;;;;;;1.30;1.20;;;22.30;57.00;;;;;;5124963;28;20030;-44
2021/05/29 10:48:02;;;;;;;1.23;0.93;;;22.30;57.10;;;;;;5123443;28;20027;-43
2021/05/29 10:50:54;;;;;;;2.67;0.90;;;22.30;57.10;;;;;;5124911;28;20117;-42
2021/05/29 10:53:38;;;;;;;0.90;0.80;;;22.30;57.20;;;;;;5124487;28;20079;-43
2021/05/29 10:56:17;;;;;;;1.10;1.00;;;22.30;57.20;;;;;;5124554;28;20204;-43
2021/05/29 10:59:10;;;;;;;1.65;0.90;;;22.30;57.20;;;;;;5124333;28;20035;-43
2021/05/29 11:01:41;;;;;;;1.00;0.90;;;22.30;57.20;;;;;;5124768;28;20031;-43
2021/05/29 11:04:22;;;;;;;1.00;0.90;;;22.30;57.20;;;;;;5124289;28;20105;-43
2021/05/29 11:06:53;;;;;;;0.80;0.70;;;22.30;57.30;;;;;;5124464;28;20684;-43
2021/05/29 11:09:35;;;;;;;1.00;0.90;;;22.30;57.20;;;;;;5122954;28;20034;-43
2021/05/29 11:12:10;;;;;;;1.38;0.73;;;22.30;57.20;;;;;;5124189;28;20046;-43
2021/05/29 11:14:56;;;;;;;1.38;1.17;;;22.30;57.20;;;;;;5124038;28;20098;-43
2021/05/29 11:17:25;;;;;;;1.10;0.93;;;22.30;57.20;;;;;;5124048;28;20096;-44
2021/05/29 11:20:03;;;;;;;1.20;1.00;;;22.30;57.20;;;;;;5124234;28;20507;-43
2021/05/29 11:22:41;;;;;;;1.30;0.90;;;22.30;57.30;;;;;;5123935;28;20041;-43
2021/05/29 11:25:08;;;;;;;1.00;0.90;;;22.30;57.30;;;;;;5123958;28;20032;-44
2021/05/29 11:27:35;;;;;;;0.95;0.88;;;22.20;57.20;;;;;;5106065;28;20031;-43
2021/05/29 11:30:07;;;;;;;0.95;0.80;;;22.20;57.10;;;;;;5104033;28;20071;-43
2021/05/29 11:35:29;;;;;;;0.88;0.85;;;22.20;57.40;;;;;;5113177;28;20039;-43
2021/05/29 11:37:59;;;;;;;1.08;0.82;;;22.30;57.40;;;;;;5123692;28;20036;-43
2021/05/29 11:40:50;;;;;;;1.15;1.00;;;22.30;57.40;;;;;;5123971;28;20081;-43
2021/05/29 11:43:38;;;;;;;1.05;0.93;;;22.30;57.50;;;;;;5123548;28;20043;-45
2021/05/29 11:46:06;;;;;;;0.80;0.80;;;22.30;57.50;;;;;;5122991;28;20043;-43
2021/05/29 11:48:43;;;;;;;1.10;1.00;;;22.30;57.40;;;;;;5123764;28;20028;-43
2021/05/29 11:51:10;;;;;;;0.90;0.90;;;22.30;57.50;;;;;;5103313;28;20070;-43
2021/05/29 11:53:50;;;;;;;1.40;1.23;;;22.20;57.50;;;;;;5109762;28;20091;-43
2021/05/29 11:56:30;;;;;;;1.08;0.90;;;22.30;57.50;;;;;;5123276;28;20377;-43
2021/05/29 11:58:56;;;;;;;1.05;1.00;;;22.30;57.50;;;;;;5123050;28;20020;-44
2021/05/29 12:01:24;;;;;;;0.80;0.80;;;22.30;57.40;;;;;;5123577;28;20035;-43
2021/05/29 12:03:52;;;;;;;0.82;0.82;;;22.20;57.50;;;;;;5123303;28;20044;-43
2021/05/29 12:06:36;;;;;;;0.77;0.77;;;22.30;57.50;;;;;;5122973;28;20066;-42
2021/05/29 12:09:32;;;;;;;1.25;0.90;;;22.30;57.60;;;;;;5123322;28;20023;-45
2021/05/29 12:12:03;;;;;;;1.25;1.10;;;22.20;57.60;;;;;;5119697;28;20031;-43
2021/05/29 12:14:36;;;;;;;1.17;0.80;;;22.30;57.50;;;;;;5123078;28;20039;-43
2021/05/29 12:17:15;;;;;;;1.10;1.00;;;22.30;57.60;;;;;;5122927;28;20024;-42
2021/05/29 12:19:42;;;;;;;1.10;1.00;;;22.20;57.50;;;;;;5123202;28;21485;-42
2021/05/29 12:22:10;;;;;;;1.08;0.98;;;22.30;57.80;;;;;;5122938;28;20031;-42
2021/05/29 12:24:51;;;;;;;1.73;1.20;;;22.30;57.80;;;;;;5123368;28;20099;-42
2021/05/29 12:27:24;;;;;;;1.10;1.00;;;22.30;57.80;;;;;;5122898;28;20026;-45
2021/05/29 12:29:58;;;;;;;0.82;0.82;;;22.30;57.80;;;;;;5123084;28;20031;-44
2021/05/29 12:32:51;;;;;;;1.30;1.20;;;22.30;57.90;;;;;;5121669;28;20032;-42
2021/05/29 12:35:30;;;;;;;0.90;0.88;;;22.30;57.90;;;;;;5121018;28;20496;-43
2021/05/29 12:38:07;;;;;;;1.30;1.20;;;22.30;57.90;;;;;;5122788;28;20030;-45
2021/05/29 12:40:33;;;;;;;1.10;1.00;;;22.30;57.90;;;;;;5127223;28;20024;-43
2021/05/29 12:42:59;;;;;;;1.10;1.00;;;22.30;58.00;;;;;;5127069;28;20048;-43
2021/05/29 12:45:28;;;;;;;2.25;1.00;;;22.30;57.90;;;;;;5127223;28;20024;-44
2021/05/29 12:47:55;;;;;;;1.27;1.00;;;22.30;58.10;;;;;;5127101;28;20027;-44
2021/05/29 12:50:59;;;;;;;;;;;22.30;58.20;;;;;;5127131;28;20087;-42
2021/05/29 12:53:26;;;;;;;3.45;1.38;;;22.40;58.10;;;;;;5126630;28;19913;-41
2021/05/29 12:56:24;;;;;;;3.50;1.20;;;22.40;58.30;;;;;;5142730;27;20491;-40
2021/05/29 12:59:04;;;;;;;1.10;1.00;;;22.40;59.00;;;;;;5118502;28;20028;-41
2021/05/29 13:10:30;;;;;;;2.60;1.13;;;22.40;58.50;;;;;;5126928;28;20583;-42
2021/05/29 13:12:23;;;;;;;1.40;1.30;;;22.40;58.50;;;;;;5117158;28;20114;-42
2021/05/29 13:14:49;;;;;;;2.60;1.08;;;22.50;58.60;;;;;;5126892;28;20629;-42
2021/05/29 13:17:24;;;;;;;1.70;1.23;;;22.50;58.60;;;;;;5126175;28;20651;-43
2021/05/29 13:20:03;;;;;;;1.42;1.20;;;22.50;58.60;;;;;;5126607;28;20023;-43
2021/05/29 13:22:33;;;;;;;3.40;1.40;;;22.50;58.70;;;;;;5126454;28;20032;-42
2021/05/29 13:25:20;;;;;;;2.13;1.00;;;22.50;58.70;;;;;;5125111;28;20031;-42